createdAt,value
2023-04-08T00:02:47.794Z,8.30
2023-04-08T00:12:52.774Z,8.00
2023-04-08T00:22:57.837Z,8.43
2023-04-08T00:33:02.346Z,8.93
2023-04-08T00:43:04.559Z,9.27
2023-04-08T00:53:08.836Z,7.87
2023-04-08T01:03:29.340Z,9.00
2023-04-08T01:13:36.261Z,9.27
2023-04-08T01:23:47.610Z,8.40
2023-04-08T01:33:51.969Z,8.10
2023-04-08T01:43:54.419Z,11.00
2023-04-08T01:53:56.592Z,10.87
2023-04-08T02:04:04.833Z,10.73
2023-04-08T02:14:07.016Z,11.27
2023-04-08T02:24:10.713Z,10.50
2023-04-08T02:34:16.559Z,10.57
2023-04-08T02:44:18.767Z,10.03
2023-04-08T02:54:23.516Z,9.17
2023-04-08T03:04:28.246Z,8.70
2023-04-08T03:14:32.645Z,9.40
2023-04-08T03:24:36.979Z,9.00
2023-04-08T03:34:39.179Z,8.73
2023-04-08T03:44:45.616Z,9.77
2023-04-08T03:54:52.486Z,9.00
2023-04-08T04:04:56.239Z,9.07
2023-04-08T04:14:58.506Z,9.23
2023-04-08T04:25:00.632Z,10.10
2023-04-08T04:35:08.040Z,9.30
2023-04-08T04:45:13.053Z,8.17
2023-04-08T04:55:18.361Z,7.90
2023-04-08T05:05:20.823Z,8.20
2023-04-08T05:15:25.140Z,8.50
2023-04-08T05:25:30.333Z,8.40
2023-04-08T05:35:37.617Z,7.77
2023-04-08T05:45:42.259Z,7.40
2023-04-08T05:55:46.600Z,7.37
2023-04-08T06:05:48.830Z,6.70
2023-04-08T06:15:51.049Z,7.87
2023-04-08T06:25:58.868Z,7.70
2023-04-08T06:36:08.431Z,8.13
2023-04-08T06:46:20.317Z,6.95
2023-04-08T06:56:27.483Z,6.43
2023-04-08T07:06:30.042Z,6.00
2023-04-08T07:16:32.558Z,6.00
2023-04-08T07:26:34.865Z,5.97
2023-04-08T07:36:37.103Z,5.97
2023-04-08T07:46:41.923Z,5.78
2023-04-08T07:56:47.099Z,6.13
2023-04-08T08:06:53.763Z,6.32
2023-04-08T08:16:57.829Z,6.07
2023-04-08T08:27:04.759Z,6.60
2023-04-08T08:37:11.767Z,6.50
2023-04-08T08:47:19.320Z,7.50
2023-04-08T08:57:21.562Z,7.03
2023-04-08T09:07:26.340Z,6.97
2023-04-08T09:17:35.933Z,5.95
2023-04-08T09:27:38.395Z,7.03
2023-04-08T09:37:43.567Z,6.65
2023-04-08T09:48:09.361Z,6.25
2023-04-08T09:58:17.323Z,6.47
2023-04-08T10:08:19.971Z,6.30
2023-04-08T10:18:30.869Z,6.70
2023-04-08T10:28:35.136Z,6.65
2023-04-08T10:38:40.241Z,6.28
2023-04-08T10:49:00.706Z,5.97
2023-04-08T10:59:06.658Z,5.30
2023-04-08T11:09:14.822Z,5.18
2023-04-08T11:19:23.163Z,5.28
2023-04-08T11:29:25.367Z,4.57
2023-04-08T11:39:30.966Z,4.50
2023-04-08T11:49:46.330Z,4.68
2023-04-08T11:59:52.345Z,4.55
2023-04-08T12:09:54.998Z,3.42
2023-04-08T12:19:57.405Z,4.07
2023-04-08T12:30:02.849Z,4.05
2023-04-08T12:40:06.361Z,4.30
2023-04-08T12:50:12.281Z,3.88
2023-04-08T13:00:15.567Z,3.78
2023-04-08T13:10:22.582Z,4.82
2023-04-08T13:20:27.289Z,4.80
2023-04-08T13:30:34.595Z,5.07
2023-04-08T13:40:36.922Z,4.88
2023-04-08T13:50:40.704Z,4.68
2023-04-08T14:00:42.894Z,4.28
2023-04-08T14:10:48.382Z,4.85
2023-04-08T14:20:55.360Z,4.65
2023-04-08T14:30:59.877Z,4.47
2023-04-08T14:41:09.136Z,3.97
2023-04-08T14:51:11.759Z,3.47
2023-04-08T15:01:14.394Z,4.00
2023-04-08T15:11:25.368Z,3.95
2023-04-08T15:21:34.667Z,3.97
2023-04-08T15:31:44.646Z,4.50
2023-04-08T15:41:49.435Z,5.18
2023-04-08T15:51:53.767Z,4.60
2023-04-08T16:01:56.053Z,4.03
2023-04-08T16:12:00.265Z,3.58
2023-04-08T16:22:02.799Z,4.15
2023-04-08T16:32:05.623Z,3.15
2023-04-08T16:42:07.912Z,3.75
2023-04-08T16:52:12.347Z,3.95
2023-04-08T17:02:17.900Z,3.72
2023-04-08T17:12:21.393Z,4.20
2023-04-08T17:22:24.601Z,4.93
2023-04-08T17:32:29.201Z,3.88
2023-04-08T17:42:33.640Z,4.03
2023-04-08T17:52:38.873Z,4.28
2023-04-08T18:13:03.728Z,5.10
2023-04-08T18:23:10.068Z,4.88
2023-04-08T18:33:15.727Z,6.13
2023-04-08T18:43:18.035Z,6.50
2023-04-08T18:53:20.759Z,5.27
2023-04-08T19:03:27.688Z,8.23
2023-04-08T19:13:32.446Z,8.43
2023-04-08T19:23:34.794Z,9.77
2023-04-08T19:33:38.140Z,10.03
2023-04-08T19:43:42.703Z,9.20
2023-04-08T19:53:45.912Z,9.33
2023-04-08T20:03:50.733Z,13.30
2023-04-08T20:13:56.029Z,8.60
2023-04-08T20:23:58.188Z,7.77
2023-04-08T20:34:03.992Z,7.90
2023-04-08T20:44:10.765Z,8.60
2023-04-08T20:54:13.853Z,8.03
2023-04-08T21:04:18.205Z,8.90
2023-04-08T21:14:24.921Z,10.67
2023-04-08T21:24:29.878Z,9.43
2023-04-08T21:34:32.142Z,8.50
2023-04-08T21:44:39.128Z,9.00
2023-04-08T21:54:41.361Z,9.10
2023-04-08T22:04:46.500Z,9.03
2023-04-08T22:14:53.107Z,9.43
2023-04-08T22:24:56.278Z,9.67
2023-04-08T22:35:03.000Z,9.10
2023-04-08T22:45:14.770Z,9.70
2023-04-08T22:55:16.977Z,8.33
2023-04-08T23:05:24.453Z,8.57
2023-04-08T23:15:28.915Z,8.23
2023-04-08T23:25:31.833Z,9.13
2023-04-08T23:35:36.377Z,9.03
2023-04-08T23:45:43.001Z,9.30
2023-04-08T23:55:45.087Z,8.50
